Terminal Aerodrome Forecast
Issued by NWS

Home | Current Version | Previous Version | Graphics & Text | Print | Product List | Glossary Off
Versions: 1 2 3 4 5 6 7 8 9 10 11 12 13 14 15 16 17 18 19 20 21 22 23 24 25 26 27 28 29 30 31 32 33 34 35 36 37 38 39

000
FTUS42 KMHX 262300
TAFPGV
TAF
KPGV 262336Z 2700/2724 VRB03KT P6SM SKC
     FM270400 00000KT 4SM BR SKC
     FM270700 00000KT 2SM BR SCT004
     FM271230 22003KT P6SM SKC
      AMD LTD TO CLD VIS AND WIND=

USA.gov is the U.S. government's official web portal to all federal, state and local government web resources and services.